Time;durP1;ratioP1;P1;durP2;ratioP2;P2;SDS_P1;SDS_P2;PMS_P1;PMS_P2;Temp;Humidity;BMP_temperature;BMP_pressure;BME280_temperature;BME280_humidity;BME280_pressure;Samples;Min_cycle;Max_cycle;Signal;HPM_P1;HPM_P2
2023/09/26 00:01:34;;;;;;;3.53;1.97;;;12.30;99.90;;;;;;5068366;28;20507;-90
2023/09/26 00:04:00;;;;;;;4.33;2.70;;;12.30;99.90;;;;;;5101558;28;20180;-90
2023/09/26 00:06:27;;;;;;;3.97;2.27;;;12.20;99.90;;;;;;5087215;28;20449;-87
2023/09/26 00:08:52;;;;;;;3.30;1.90;;;12.20;99.90;;;;;;5071166;28;20415;-88
2023/09/26 00:11:19;;;;;;;3.20;2.43;;;12.20;99.90;;;;;;5085617;28;20426;-89
2023/09/26 00:13:45;;;;;;;2.93;2.20;;;12.10;99.90;;;;;;5087459;28;20179;-89
2023/09/26 00:16:11;;;;;;;3.17;2.57;;;12.10;99.90;;;;;;5104314;28;20422;-90
2023/09/26 00:18:40;;;;;;;2.50;2.00;;;12.10;99.90;;;;;;5086931;28;20397;-90
2023/09/26 00:21:07;;;;;;;3.13;2.17;;;12.10;99.90;;;;;;5087723;28;20513;-89
2023/09/26 00:23:33;;;;;;;3.10;2.07;;;12.10;99.90;;;;;;5070886;28;20535;-89
2023/09/26 00:25:59;;;;;;;2.80;2.40;;;12.00;99.90;;;;;;5068525;28;20886;-90
2023/09/26 00:28:25;;;;;;;3.93;2.13;;;12.00;99.90;;;;;;5069917;28;20422;-89
2023/09/26 00:30:51;;;;;;;3.50;1.93;;;11.90;99.90;;;;;;5054074;28;20223;-89
2023/09/26 00:33:16;;;;;;;3.07;1.90;;;11.90;99.90;;;;;;5104162;28;20289;-89
2023/09/26 00:35:42;;;;;;;6.90;2.83;;;11.80;99.90;;;;;;5104203;28;20176;-90
2023/09/26 00:38:08;;;;;;;2.53;2.30;;;11.80;99.90;;;;;;5103366;28;20330;-90
2023/09/26 00:40:33;;;;;;;2.63;2.33;;;11.70;99.90;;;;;;5102195;28;20180;-90
2023/09/26 00:43:02;;;;;;;5.53;2.77;;;11.70;99.90;;;;;;5099060;28;20185;-90
2023/09/26 00:45:28;;;;;;;2.30;2.10;;;11.70;99.90;;;;;;5099560;28;20228;-90
2023/09/26 00:47:53;;;;;;;4.03;2.83;;;11.70;99.90;;;;;;5063286;28;20425;-90
2023/09/26 00:50:22;;;;;;;5.40;2.83;;;11.60;99.90;;;;;;5067361;28;20164;-87
2023/09/26 00:52:51;;;;;;;9.20;2.70;;;11.60;99.90;;;;;;5073212;28;20181;-90
2023/09/26 00:55:20;;;;;;;2.50;2.30;;;11.60;99.90;;;;;;5104089;28;20474;-89
2023/09/26 00:57:46;;;;;;;2.90;2.43;;;11.60;99.90;;;;;;5095071;28;20861;-90
2023/09/26 01:00:15;;;;;;;2.10;1.90;;;11.60;99.90;;;;;;5097853;28;20450;-90
2023/09/26 01:02:41;;;;;;;4.63;2.60;;;11.50;99.90;;;;;;5097066;28;20419;-90
2023/09/26 01:05:08;;;;;;;3.70;3.00;;;11.60;99.90;;;;;;5079301;28;20509;-90
2023/09/26 01:07:34;;;;;;;3.10;2.63;;;11.50;99.90;;;;;;5058978;28;20458;-90
2023/09/26 01:10:00;;;;;;;4.57;2.10;;;11.50;99.90;;;;;;5058898;28;20489;-90
2023/09/26 01:12:29;;;;;;;3.33;2.40;;;11.50;99.90;;;;;;5078345;28;20792;-89
2023/09/26 01:14:55;;;;;;;5.07;2.50;;;11.40;99.90;;;;;;5080123;28;20780;-89
2023/09/26 01:17:21;;;;;;;6.83;2.47;;;11.40;99.90;;;;;;5079730;28;20410;-88
2023/09/26 01:19:46;;;;;;;4.40;3.03;;;11.30;99.90;;;;;;5079212;28;20407;-89
2023/09/26 01:22:16;;;;;;;4.03;2.57;;;11.30;99.90;;;;;;5078386;28;20560;-89
2023/09/26 01:24:43;;;;;;;2.23;1.90;;;11.30;99.90;;;;;;5096479;28;20184;-89
2023/09/26 01:27:09;;;;;;;5.33;2.23;;;11.30;99.90;;;;;;5096497;28;20476;-89
2023/09/26 01:29:35;;;;;;;3.63;2.50;;;11.20;99.90;;;;;;5078386;28;20423;-89
2023/09/26 01:32:00;;;;;;;5.30;2.50;;;11.10;99.90;;;;;;5096443;28;20482;-89
2023/09/26 01:34:26;;;;;;;5.73;2.13;;;11.10;99.90;;;;;;5078125;28;20180;-89
2023/09/26 01:36:51;;;;;;;3.60;2.17;;;11.00;99.90;;;;;;5078504;28;20701;-89
2023/09/26 01:39:17;;;;;;;7.00;2.70;;;10.90;99.90;;;;;;5078797;28;20180;-89
2023/09/26 01:41:43;;;;;;;3.43;2.83;;;10.90;99.90;;;;;;5067421;28;20181;-89
2023/09/26 01:44:08;;;;;;;3.20;3.00;;;10.80;99.90;;;;;;5058489;28;20275;-89
2023/09/26 01:46:34;;;;;;;7.87;2.60;;;10.80;99.90;;;;;;5058930;28;20592;-89
2023/09/26 01:49:00;;;;;;;3.07;2.10;;;10.70;99.90;;;;;;5079952;28;20625;-89
2023/09/26 01:51:26;;;;;;;4.80;2.20;;;10.70;99.90;;;;;;5061834;28;20795;-88
2023/09/26 01:53:51;;;;;;;4.00;2.47;;;10.60;99.90;;;;;;5067617;28;20180;-89
2023/09/26 01:56:17;;;;;;;3.60;2.73;;;10.60;99.90;;;;;;5096103;28;20191;-89
2023/09/26 01:58:43;;;;;;;4.30;2.60;;;10.60;99.90;;;;;;5095644;28;20184;-89
2023/09/26 02:01:08;;;;;;;2.50;2.30;;;10.50;99.90;;;;;;5061606;28;20184;-89
2023/09/26 02:03:35;;;;;;;4.17;2.73;;;10.50;99.90;;;;;;5077955;28;20184;-89
2023/09/26 02:06:00;;;;;;;4.13;2.70;;;10.50;99.90;;;;;;5077829;28;20294;-88
2023/09/26 02:08:26;;;;;;;3.77;2.90;;;10.50;99.90;;;;;;5077895;28;20412;-88
2023/09/26 02:10:52;;;;;;;4.97;2.93;;;10.50;99.90;;;;;;5077830;28;20506;-88
2023/09/26 02:13:18;;;;;;;2.60;2.37;;;10.50;99.90;;;;;;5095250;28;20437;-89
2023/09/26 02:15:43;;;;;;;6.00;3.20;;;10.50;99.90;;;;;;5077773;28;20446;-89
2023/09/26 02:18:09;;;;;;;5.97;2.87;;;10.50;99.90;;;;;;5061177;28;20180;-89
2023/09/26 02:20:34;;;;;;;6.53;2.80;;;10.50;99.90;;;;;;5077477;28;20182;-89
2023/09/26 02:23:00;;;;;;;4.40;2.87;;;10.50;99.90;;;;;;5060923;28;20232;-89
2023/09/26 02:25:27;;;;;;;4.03;2.90;;;10.50;99.90;;;;;;5094861;28;20214;-88
2023/09/26 02:27:53;;;;;;;3.60;3.07;;;10.50;99.90;;;;;;5077233;28;20275;-89
2023/09/26 02:30:21;;;;;;;6.10;3.57;;;10.50;99.90;;;;;;5077717;28;20450;-89
2023/09/26 02:32:47;;;;;;;5.00;2.73;;;10.50;99.90;;;;;;5095194;28;20679;-89
2023/09/26 02:35:15;;;;;;;3.73;2.63;;;10.50;99.90;;;;;;5076804;28;20426;-88
2023/09/26 02:37:41;;;;;;;4.33;2.97;;;10.40;99.90;;;;;;5076604;28;20624;-89
2023/09/26 02:40:09;;;;;;;3.63;2.80;;;10.40;99.90;;;;;;5060186;28;20430;-89
2023/09/26 02:42:38;;;;;;;5.00;3.50;;;10.40;99.90;;;;;;5092252;28;20187;-88
2023/09/26 02:45:05;;;;;;;3.73;3.03;;;10.30;99.90;;;;;;5077104;28;20188;-89
2023/09/26 02:47:30;;;;;;;4.43;3.53;;;10.30;99.90;;;;;;5077453;28;20557;-89
2023/09/26 02:49:56;;;;;;;5.70;3.37;;;10.30;99.90;;;;;;5059947;28;20517;-89
2023/09/26 02:52:23;;;;;;;6.20;3.60;;;10.30;99.90;;;;;;5076733;28;20184;-89
2023/09/26 02:54:49;;;;;;;5.27;2.87;;;10.30;99.90;;;;;;5060147;28;20218;-89
2023/09/26 02:57:15;;;;;;;7.33;3.50;;;10.30;99.90;;;;;;5076964;28;20451;-89
2023/09/26 02:59:41;;;;;;;3.50;3.20;;;10.40;99.90;;;;;;5060480;28;20180;-89
2023/09/26 03:02:07;;;;;;;5.47;3.43;;;10.40;99.90;;;;;;5077150;28;20942;-89
2023/09/26 03:04:33;;;;;;;4.40;3.23;;;10.50;99.90;;;;;;5066066;28;20262;-89
2023/09/26 03:06:58;;;;;;;5.53;3.63;;;10.50;99.90;;;;;;5092040;28;20229;-89
2023/09/26 03:09:24;;;;;;;5.13;3.60;;;10.60;99.90;;;;;;5084380;28;20430;-88
2023/09/26 03:11:49;;;;;;;5.27;3.60;;;10.60;99.90;;;;;;5060686;28;20637;-89
2023/09/26 03:14:17;;;;;;;3.80;3.27;;;10.60;99.90;;;;;;5068744;28;20259;-89
2023/09/26 03:16:42;;;;;;;6.57;3.53;;;10.60;99.90;;;;;;5094690;28;20187;-89
2023/09/26 03:19:09;;;;;;;3.73;3.33;;;10.60;99.90;;;;;;5043368;28;20548;-89
2023/09/26 03:21:34;;;;;;;5.00;3.30;;;10.60;99.90;;;;;;5076284;28;20610;-88
2023/09/26 03:24:00;;;;;;;4.60;3.23;;;10.60;99.90;;;;;;5093834;28;20454;-89
2023/09/26 03:26:25;;;;;;;4.23;3.83;;;10.60;99.90;;;;;;5076940;28;20278;-89
2023/09/26 03:28:51;;;;;;;5.03;3.73;;;10.60;99.90;;;;;;5094925;28;20184;-89
2023/09/26 03:31:16;;;;;;;7.33;3.33;;;10.60;99.90;;;;;;5095490;28;20674;-89
2023/09/26 03:33:42;;;;;;;3.77;3.23;;;10.70;99.90;;;;;;5076893;28;20180;-89
2023/09/26 03:36:08;;;;;;;5.90;4.10;;;10.60;99.90;;;;;;5077214;28;20184;-89
2023/09/26 03:38:33;;;;;;;5.53;3.63;;;10.60;99.90;;;;;;5076206;28;20640;-89
2023/09/26 03:41:00;;;;;;;7.00;3.13;;;10.60;99.90;;;;;;5060017;28;20191;-89
2023/09/26 03:43:26;;;;;;;5.40;3.17;;;10.60;99.90;;;;;;5088965;28;20176;-89
2023/09/26 03:46:02;;;;;;;3.42;3.05;;;10.60;99.90;;;;;;5057239;28;20812;-90
2023/09/26 03:48:28;;;;;;;4.80;3.60;;;10.60;99.90;;;;;;5074506;28;20172;-89
2023/09/26 03:50:54;;;;;;;4.43;4.03;;;10.60;99.90;;;;;;5073897;28;20498;-89
2023/09/26 03:53:20;;;;;;;3.60;3.30;;;10.60;99.90;;;;;;5058765;28;20514;-88
2023/09/26 03:55:55;;;;;;;5.00;3.30;;;10.70;99.90;;;;;;5076268;28;20280;-89
2023/09/26 03:58:21;;;;;;;3.77;3.33;;;10.70;99.90;;;;;;5074107;28;20211;-88
2023/09/26 04:00:47;;;;;;;3.90;3.40;;;10.60;99.90;;;;;;5074168;28;20378;-89
2023/09/26 04:03:12;;;;;;;5.20;3.77;;;10.60;99.90;;;;;;5059185;28;20418;-88
2023/09/26 04:05:39;;;;;;;8.87;3.43;;;10.60;99.90;;;;;;5095426;28;20212;-89
2023/09/26 04:08:05;;;;;;;4.82;3.47;;;10.60;99.90;;;;;;5077861;28;20553;-89
2023/09/26 04:10:36;;;;;;;3.57;3.27;;;10.60;99.90;;;;;;5095014;28;20176;-86
2023/09/26 04:13:01;;;;;;;3.60;3.20;;;10.50;99.90;;;;;;5095293;28;20176;-88
2023/09/26 04:15:27;;;;;;;5.70;3.70;;;10.50;99.90;;;;;;5056249;28;20522;-89
2023/09/26 04:17:52;;;;;;;5.87;3.27;;;10.40;99.90;;;;;;5058638;28;20188;-89
2023/09/26 04:20:19;;;;;;;4.57;3.70;;;10.30;99.90;;;;;;5061776;28;20197;-89
2023/09/26 04:22:47;;;;;;;4.10;3.63;;;10.20;99.90;;;;;;5075389;28;20220;-89
2023/09/26 04:25:12;;;;;;;4.20;3.77;;;10.20;99.90;;;;;;5095832;28;20434;-89
2023/09/26 04:27:38;;;;;;;5.83;3.33;;;10.10;99.90;;;;;;5062921;28;20473;-89
2023/09/26 04:30:06;;;;;;;5.23;3.83;;;10.10;99.90;;;;;;5085267;28;20192;-89
2023/09/26 04:32:32;;;;;;;5.67;4.33;;;10.10;99.90;;;;;;5059342;28;20184;-88
2023/09/26 04:34:57;;;;;;;4.77;3.10;;;10.10;99.90;;;;;;5064441;28;20435;-88
2023/09/26 04:37:23;;;;;;;5.90;4.00;;;10.00;99.90;;;;;;5100151;28;20462;-88
2023/09/26 04:39:49;;;;;;;4.63;3.30;;;10.00;99.90;;;;;;5118048;28;20544;-88
2023/09/26 04:42:14;;;;;;;3.90;3.60;;;10.00;99.90;;;;;;5097709;28;20230;-88
2023/09/26 04:44:40;;;;;;;9.63;4.50;;;9.90;99.90;;;;;;5096883;28;20191;-88
2023/09/26 04:47:06;;;;;;;7.80;3.67;;;9.90;99.90;;;;;;5097072;28;20552;-88
2023/09/26 04:49:33;;;;;;;8.60;3.97;;;9.80;99.90;;;;;;5080057;28;20229;-88
2023/09/26 04:51:59;;;;;;;4.30;3.60;;;9.70;99.90;;;;;;5057752;28;20191;-88
2023/09/26 04:54:24;;;;;;;7.27;4.30;;;9.70;99.90;;;;;;5047873;28;20271;-88
2023/09/26 04:56:50;;;;;;;8.10;4.43;;;9.70;99.90;;;;;;5076018;28;20191;-88
2023/09/26 04:59:15;;;;;;;7.53;4.43;;;9.60;99.90;;;;;;5075457;28;20185;-87
2023/09/26 05:01:42;;;;;;;6.90;4.20;;;9.60;99.90;;;;;;5075949;28;20211;-88
2023/09/26 05:04:07;;;;;;;5.10;4.40;;;9.50;99.90;;;;;;5079923;28;20191;-88
2023/09/26 05:06:33;;;;;;;9.40;4.00;;;9.50;99.90;;;;;;5061362;28;20212;-88
2023/09/26 05:08:59;;;;;;;5.47;4.60;;;9.40;99.90;;;;;;5078030;28;20648;-87
2023/09/26 05:11:26;;;;;;;9.70;4.87;;;9.30;99.90;;;;;;5058990;28;20180;-88
2023/09/26 05:13:51;;;;;;;5.00;4.50;;;9.30;99.90;;;;;;5074902;28;20242;-87
2023/09/26 05:16:18;;;;;;;6.53;4.80;;;9.40;99.90;;;;;;5047113;28;20205;-87
2023/09/26 05:18:43;;;;;;;7.10;4.90;;;9.40;99.90;;;;;;5064687;28;20247;-86
2023/09/26 05:21:09;;;;;;;7.03;5.57;;;9.30;99.90;;;;;;5080119;28;20169;-86
2023/09/26 05:23:35;;;;;;;5.60;5.03;;;9.30;99.90;;;;;;5098172;28;20224;-86
2023/09/26 05:26:09;;;;;;;5.90;5.30;;;9.30;99.90;;;;;;5105498;28;20465;-86
2023/09/26 05:28:35;;;;;;;7.80;5.95;;;9.30;99.90;;;;;;5102574;28;20418;-83
2023/09/26 05:31:01;;;;;;;7.63;4.80;;;9.20;99.90;;;;;;5097106;28;20538;-86
2023/09/26 05:33:26;;;;;;;5.70;4.50;;;9.20;99.90;;;;;;5078164;28;20229;-87
2023/09/26 05:35:54;;;;;;;13.53;4.43;;;9.20;99.90;;;;;;5061404;28;20938;-86
2023/09/26 05:38:20;;;;;;;6.72;5.15;;;9.20;99.90;;;;;;5059024;28;20640;-88
2023/09/26 05:40:47;;;;;;;10.10;5.70;;;9.20;99.90;;;;;;5094683;28;20195;-85
2023/09/26 05:43:12;;;;;;;8.80;5.45;;;9.10;99.90;;;;;;5095745;28;20212;-85
2023/09/26 05:45:38;;;;;;;6.90;5.37;;;9.20;99.90;;;;;;5095504;28;20265;-86
2023/09/26 05:48:04;;;;;;;7.80;5.70;;;9.10;99.90;;;;;;5077244;28;20422;-84
2023/09/26 05:50:31;;;;;;;9.13;5.50;;;9.10;99.90;;;;;;5090816;28;20183;-84
2023/09/26 05:52:56;;;;;;;7.85;5.35;;;9.10;99.90;;;;;;5094896;28;20192;-84
2023/09/26 05:55:22;;;;;;;7.07;6.13;;;9.20;99.90;;;;;;5077658;28;20659;-84
2023/09/26 05:57:48;;;;;;;7.23;5.03;;;9.20;99.90;;;;;;5057232;28;20341;-84
2023/09/26 06:00:14;;;;;;;8.90;5.70;;;9.20;99.90;;;;;;5058016;28;20309;-85
2023/09/26 06:02:40;;;;;;;12.88;5.45;;;9.30;99.90;;;;;;5094880;28;20176;-84
2023/09/26 06:05:06;;;;;;;8.88;6.05;;;9.30;99.90;;;;;;5095647;28;20184;-83
2023/09/26 06:07:32;;;;;;;8.00;5.70;;;9.40;99.90;;;;;;5094300;28;20212;-84
2023/09/26 06:09:58;;;;;;;11.53;6.10;;;9.40;99.90;;;;;;5076597;28;20696;-84
2023/09/26 06:12:24;;;;;;;8.52;5.70;;;9.50;99.90;;;;;;5094647;28;20184;-84
2023/09/26 06:14:50;;;;;;;7.40;5.43;;;9.60;99.90;;;;;;5077298;28;20567;-83
2023/09/26 06:17:15;;;;;;;8.23;6.60;;;9.70;99.90;;;;;;5077049;28;20430;-84
2023/09/26 06:19:46;;;;;;;6.80;6.10;;;9.80;99.90;;;;;;5057527;28;20431;-83
2023/09/26 06:22:16;;;;;;;8.02;5.75;;;9.90;99.90;;;;;;5076947;28;20231;-84
2023/09/26 06:24:42;;;;;;;7.57;5.88;;;10.00;99.90;;;;;;5080588;28;20194;-84
2023/09/26 06:27:07;;;;;;;7.80;5.90;;;10.20;99.90;;;;;;5093847;28;20686;-85
2023/09/26 06:29:36;;;;;;;13.07;6.00;;;10.30;99.90;;;;;;5076806;28;20422;-85
2023/09/26 06:32:02;;;;;;;6.13;5.53;;;10.40;99.90;;;;;;5094260;28;20215;-85
2023/09/26 06:34:28;;;;;;;7.43;6.00;;;10.60;99.90;;;;;;5079534;28;20414;-84
2023/09/26 06:36:53;;;;;;;10.57;6.33;;;10.80;99.90;;;;;;5060276;28;20248;-85
2023/09/26 06:39:19;;;;;;;8.40;6.27;;;10.90;99.90;;;;;;5059670;28;20180;-84
2023/09/26 06:41:44;;;;;;;6.53;5.43;;;11.00;99.90;;;;;;5076056;28;20208;-85
2023/09/26 06:44:10;;;;;;;10.33;6.00;;;11.10;99.90;;;;;;5053267;28;20195;-84
2023/09/26 06:46:36;;;;;;;7.20;5.10;;;11.20;99.90;;;;;;5058604;28;20207;-85
2023/09/26 06:49:03;;;;;;;9.50;6.00;;;11.30;99.90;;;;;;5093367;28;20918;-86
2023/09/26 06:51:30;;;;;;;8.13;5.40;;;11.30;99.90;;;;;;5076378;28;20410;-85
2023/09/26 06:53:56;;;;;;;6.37;5.00;;;11.40;99.90;;;;;;5075390;28;20422;-85
2023/09/26 06:56:22;;;;;;;8.53;5.70;;;11.50;99.90;;;;;;5075774;28;20482;-84
2023/09/26 06:58:48;;;;;;;7.93;5.40;;;11.60;99.90;;;;;;5075844;28;20826;-84
2023/09/26 07:01:14;;;;;;;6.40;4.90;;;11.70;99.90;;;;;;5075392;28;20511;-84
2023/09/26 07:03:41;;;;;;;5.87;5.27;;;11.80;99.90;;;;;;5075179;28;20195;-85
2023/09/26 07:06:11;;;;;;;6.60;4.80;;;11.90;99.90;;;;;;5074150;28;20473;-84
2023/09/26 07:08:41;;;;;;;11.00;5.20;;;12.10;99.90;;;;;;5074535;28;20418;-85
2023/09/26 07:11:08;;;;;;;8.00;4.53;;;12.20;99.90;;;;;;5074791;28;20829;-88
2023/09/26 07:13:36;;;;;;;7.00;5.03;;;12.30;99.90;;;;;;5055166;28;20938;-89
2023/09/26 07:16:03;;;;;;;6.80;4.87;;;12.40;99.90;;;;;;5057119;28;20422;-89
2023/09/26 07:18:37;;;;;;;7.10;5.10;;;12.40;99.90;;;;;;5073916;28;20414;-88
2023/09/26 07:21:06;;;;;;;6.93;3.50;;;12.50;99.90;;;;;;5075374;28;20426;-89
2023/09/26 07:23:37;;;;;;;10.53;4.20;;;12.80;99.90;;;;;;5078411;28;20828;-89
2023/09/26 07:26:12;;;;;;;6.27;5.07;;;13.00;99.90;;;;;;5083194;28;21360;-89
2023/09/26 07:28:38;;;;;;;7.53;4.20;;;13.10;99.90;;;;;;5101200;28;20422;-87
2023/09/26 07:31:04;;;;;;;9.07;4.27;;;13.20;99.90;;;;;;5065661;28;20937;-86
2023/09/26 07:33:30;;;;;;;3.63;3.33;;;13.20;99.90;;;;;;5078386;28;20752;-87
2023/09/26 07:35:56;;;;;;;4.50;3.50;;;13.40;99.90;;;;;;5075495;28;20518;-87
2023/09/26 07:38:21;;;;;;;6.97;4.03;;;13.50;99.90;;;;;;5077571;28;20233;-88
2023/09/26 07:40:47;;;;;;;4.37;3.80;;;13.50;99.90;;;;;;5077596;28;20200;-89
2023/09/26 07:43:13;;;;;;;5.10;3.30;;;13.70;99.90;;;;;;5055982;28;20192;-88
2023/09/26 07:45:39;;;;;;;3.43;2.90;;;13.80;99.90;;;;;;5076599;28;20180;-88
2023/09/26 07:48:05;;;;;;;6.70;3.87;;;13.90;99.90;;;;;;5095828;28;20490;-86
2023/09/26 07:50:31;;;;;;;5.00;3.67;;;14.00;99.90;;;;;;5056503;28;20510;-88
2023/09/26 07:52:56;;;;;;;11.17;4.27;;;14.20;99.90;;;;;;5058462;28;20429;-85
2023/09/26 07:55:22;;;;;;;4.13;3.47;;;14.40;99.90;;;;;;5098388;28;20203;-87
2023/09/26 07:57:48;;;;;;;5.17;2.67;;;14.50;99.90;;;;;;5059993;28;20184;-87
2023/09/26 08:00:14;;;;;;;4.30;3.03;;;14.70;99.90;;;;;;5053940;28;20405;-87
2023/09/26 08:02:40;;;;;;;4.90;3.10;;;14.80;99.90;;;;;;5082546;28;20271;-88
2023/09/26 08:05:06;;;;;;;4.00;3.53;;;15.00;99.90;;;;;;5084811;28;20420;-87
2023/09/26 08:07:32;;;;;;;6.70;3.30;;;15.00;99.90;;;;;;5065352;28;20207;-86
2023/09/26 08:10:00;;;;;;;10.63;3.70;;;15.10;99.90;;;;;;5045045;28;20398;-86
2023/09/26 08:12:27;;;;;;;12.23;3.57;;;15.40;99.90;;;;;;5060550;28;20184;-85
2023/09/26 08:14:53;;;;;;;6.30;3.33;;;15.40;99.90;;;;;;5079177;28;20396;-85
2023/09/26 08:17:19;;;;;;;10.90;3.00;;;15.60;99.90;;;;;;5079890;28;20489;-84
2023/09/26 08:19:45;;;;;;;3.40;2.47;;;15.80;99.90;;;;;;5062201;28;20514;-85
2023/09/26 08:22:10;;;;;;;5.63;2.57;;;15.90;99.90;;;;;;5079386;28;20251;-90
2023/09/26 08:24:36;;;;;;;4.40;2.67;;;16.00;99.90;;;;;;5080422;28;20199;-91
2023/09/26 08:27:02;;;;;;;3.90;2.80;;;16.20;99.90;;;;;;5098215;28;20250;-89
2023/09/26 08:29:27;;;;;;;4.60;3.13;;;16.40;99.90;;;;;;5079489;28;20221;-87
2023/09/26 08:31:54;;;;;;;8.90;3.80;;;16.70;99.90;;;;;;5081073;28;20400;-90
2023/09/26 08:34:20;;;;;;;5.93;3.50;;;16.90;99.90;;;;;;5061449;28;20322;-91
2023/09/26 08:36:46;;;;;;;5.27;3.10;;;17.00;99.90;;;;;;5097207;28;20435;-90
2023/09/26 08:39:12;;;;;;;5.77;3.30;;;17.20;99.90;;;;;;5079945;28;20425;-89
2023/09/26 08:41:38;;;;;;;3.43;3.00;;;17.20;99.90;;;;;;5079561;28;20925;-88
2023/09/26 08:44:04;;;;;;;4.60;2.80;;;17.20;99.90;;;;;;5079436;28;20191;-88
2023/09/26 08:46:30;;;;;;;9.00;3.30;;;17.40;99.90;;;;;;5096967;28;20444;-88
2023/09/26 08:48:57;;;;;;;6.13;2.70;;;17.90;99.90;;;;;;5097570;28;20418;-88
2023/09/26 08:51:22;;;;;;;5.00;3.27;;;18.00;99.90;;;;;;5079363;28;20455;-87
2023/09/26 08:53:48;;;;;;;4.83;3.60;;;18.20;99.90;;;;;;5096691;28;20917;-89
2023/09/26 08:56:14;;;;;;;7.40;3.43;;;18.20;99.90;;;;;;5059039;28;20541;-89
2023/09/26 08:58:41;;;;;;;8.40;4.03;;;18.80;99.90;;;;;;5060483;28;20401;-88
2023/09/26 09:01:07;;;;;;;6.07;3.07;;;19.20;99.90;;;;;;5074667;28;20806;-88
2023/09/26 09:03:33;;;;;;;7.47;2.80;;;19.70;99.90;;;;;;5097077;28;20892;-90
2023/09/26 09:05:58;;;;;;;5.70;2.70;;;20.00;99.90;;;;;;5080256;28;20484;-90
2023/09/26 09:08:24;;;;;;;4.53;2.70;;;20.10;99.90;;;;;;5080374;28;20192;-89
2023/09/26 09:10:52;;;;;;;4.63;2.80;;;20.40;99.90;;;;;;5066308;28;20187;-91
2023/09/26 09:13:31;;;;;;;4.47;2.90;;;20.40;99.90;;;;;;5102426;28;21107;-90
2023/09/26 09:16:13;;;;;;;3.27;2.70;;;20.50;99.90;;;;;;5100187;28;20426;-92
2023/09/26 09:18:42;;;;;;;4.00;2.67;;;20.60;99.90;;;;;;5099095;28;20506;-89
2023/09/26 09:21:31;;;;;;;7.03;2.33;;;20.80;99.90;;;;;;5079811;28;20414;-90
2023/09/26 09:24:07;;;;;;;4.00;2.33;;;21.20;99.90;;;;;;5090003;28;20469;-90
2023/09/26 09:26:34;;;;;;;3.60;1.80;;;21.40;99.90;;;;;;5097261;28;21210;-92
2023/09/26 09:29:20;;;;;;;4.87;2.23;;;21.70;99.90;;;;;;5079842;28;20429;-88
2023/09/26 09:31:47;;;;;;;2.90;2.03;;;21.50;99.90;;;;;;5077864;28;20483;-89
2023/09/26 09:34:15;;;;;;;4.50;2.57;;;21.50;99.90;;;;;;5103959;28;20430;-88
2023/09/26 09:36:40;;;;;;;3.80;2.57;;;22.00;99.90;;;;;;5100928;28;20430;-86
2023/09/26 09:39:09;;;;;;;3.90;2.30;;;22.80;99.90;;;;;;5098649;28;20418;-89
2023/09/26 09:43:43;;;;;;;3.93;2.70;;;23.60;99.90;;;;;;5151075;27;20587;-90
2023/09/26 09:46:10;;;;;;;4.87;2.80;;;24.00;99.90;;;;;;5135278;28;20900;-91
2023/09/26 09:48:43;;;;;;;3.10;2.23;;;24.30;99.90;;;;;;5134328;28;20598;-88
2023/09/26 09:51:13;;;;;;;4.23;3.10;;;24.50;99.90;;;;;;5124992;28;20421;-88
2023/09/26 09:53:42;;;;;;;4.37;3.00;;;25.00;99.90;;;;;;5117384;28;20458;-90
2023/09/26 09:56:08;;;;;;;3.07;2.40;;;24.50;99.90;;;;;;5133525;28;20834;-91
2023/09/26 09:58:40;;;;;;;5.13;2.70;;;25.20;99.90;;;;;;5130977;28;20444;-91
2023/09/26 10:01:06;;;;;;;4.57;3.10;;;25.60;99.90;;;;;;5132328;28;20415;-91
2023/09/26 10:03:33;;;;;;;6.80;2.70;;;25.80;99.90;;;;;;5137825;28;20524;-91
2023/09/26 10:05:59;;;;;;;6.03;3.07;;;26.20;99.90;;;;;;5137631;28;20424;-92
2023/09/26 10:08:26;;;;;;;5.43;2.60;;;26.60;99.90;;;;;;5121033;28;20436;-92
2023/09/26 10:10:53;;;;;;;4.57;3.20;;;26.40;99.90;;;;;;5119461;28;20409;-90
2023/09/26 10:13:19;;;;;;;4.93;3.27;;;26.50;99.90;;;;;;5134185;28;20460;-91
2023/09/26 10:16:07;;;;;;;6.27;3.00;;;26.90;99.90;;;;;;5134901;28;20424;-92
2023/09/26 10:18:37;;;;;;;4.97;2.97;;;26.50;99.90;;;;;;5133141;28;20171;-93
2023/09/26 10:21:03;;;;;;;4.70;3.03;;;26.20;99.90;;;;;;5131660;28;20412;-91
2023/09/26 10:23:29;;;;;;;5.60;2.83;;;26.20;99.90;;;;;;5133882;27;20806;-91
2023/09/26 10:25:54;;;;;;;3.27;2.70;;;26.70;99.90;;;;;;5095862;28;20436;-91
2023/09/26 10:28:21;;;;;;;3.70;2.80;;;26.90;99.90;;;;;;5096084;28;20176;-92
2023/09/26 10:30:54;;;;;;;3.13;2.83;;;27.20;99.90;;;;;;5129212;28;20179;-91
2023/09/26 10:33:20;;;;;;;2.53;2.33;;;27.20;99.90;;;;;;5135702;28;20475;-91
2023/09/26 10:35:45;;;;;;;3.83;2.60;;;27.20;99.90;;;;;;5134506;28;20409;-88
2023/09/26 10:38:18;;;;;;;6.40;2.90;;;;;;;;;;5116137;28;20183;-92
2023/09/26 10:40:44;;;;;;;3.43;2.40;;;;;;;;;;5139345;28;20519;-92
2023/09/26 10:43:10;;;;;;;3.57;2.47;;;;;;;;;;5138650;27;20460;-92
2023/09/26 10:45:36;;;;;;;3.40;1.97;;;;;;;;;;5138579;28;20428;-94
2023/09/26 10:48:06;;;;;;;2.87;1.83;;;;;;;;;;5137988;28;20401;-93
2023/09/26 10:50:32;;;;;;;2.37;1.90;;;;;;;;;;5117688;28;20457;-92
2023/09/26 10:52:59;;;;;;;5.30;2.23;;;;;;;;;;5134992;28;20464;-92
2023/09/26 10:55:25;;;;;;;3.33;2.07;;;;;;;;;;5121207;28;20512;-92
2023/09/26 10:57:51;;;;;;;2.33;1.70;;;;;;;;;;5118487;28;20408;-92
2023/09/26 11:00:17;;;;;;;2.00;1.70;;;;;;;;;;5105050;28;20470;-89
2023/09/26 11:02:44;;;;;;;2.73;1.80;;;;;;;;;;5104140;28;20431;-93
2023/09/26 11:05:11;;;;;;;4.30;1.80;;;;;;;;;;5121931;28;20454;-93
2023/09/26 11:07:38;;;;;;;2.03;1.80;;;;;;;;;;5120175;28;20397;-92
2023/09/26 11:10:06;;;;;;;2.10;1.90;;;;;;;;;;5120133;28;20833;-92
2023/09/26 11:12:32;;;;;;;3.10;1.80;;;;;;;;;;5117642;28;20515;-92
2023/09/26 11:14:59;;;;;;;5.60;2.20;;;;;;;;;;5116735;28;20412;-89
2023/09/26 11:17:29;;;;;;;4.80;2.23;;;;;;;;;;5117825;28;20855;-91
2023/09/26 11:19:59;;;;;;;3.77;1.90;;;;;;;;;;5116888;28;20512;-89
2023/09/26 11:22:25;;;;;;;2.60;2.03;;;;;;;;;;5117399;28;20831;-89
2023/09/26 11:25:07;;;;;;;2.87;1.60;;;;;;;;;;5121063;28;20420;-89
2023/09/26 11:27:39;;;;;;;3.30;2.20;;;;;;;;;;5118539;28;20807;-91
2023/09/26 11:30:06;;;;;;;3.43;1.83;;;;;;;;;;5117242;28;20913;-92
2023/09/26 11:32:33;;;;;;;2.43;2.00;;;27.70;99.90;;;;;;5117504;28;20547;-85
2023/09/26 11:34:59;;;;;;;2.73;2.00;;;28.00;99.90;;;;;;5117288;28;20483;-83
2023/09/26 11:37:25;;;;;;;3.07;1.70;;;28.00;99.90;;;;;;5098707;28;20804;-85
2023/09/26 11:39:52;;;;;;;2.10;1.80;;;28.20;99.90;;;;;;5119304;28;20762;-83
2023/09/26 11:42:17;;;;;;;2.57;1.87;;;28.40;99.90;;;;;;5119423;28;20227;-86
2023/09/26 11:44:54;;;;;;;3.03;1.70;;;28.40;99.90;;;;;;5117960;28;20489;-83
2023/09/26 11:47:24;;;;;;;2.50;2.00;;;28.10;99.90;;;;;;5116347;28;20175;-83
2023/09/26 11:49:51;;;;;;;3.63;1.90;;;28.10;99.90;;;;;;5119456;28;20444;-85
2023/09/26 11:52:17;;;;;;;1.60;1.47;;;28.40;99.90;;;;;;5119789;28;20457;-82
2023/09/26 11:54:44;;;;;;;2.70;2.07;;;28.60;99.90;;;;;;5125548;28;20943;-88
2023/09/26 11:57:14;;;;;;;5.63;2.00;;;28.60;99.90;;;;;;5102078;28;20409;-89
2023/09/26 11:59:43;;;;;;;4.73;1.97;;;29.00;99.90;;;;;;5116196;28;20811;-84
2023/09/26 12:02:08;;;;;;;2.57;2.20;;;29.00;99.90;;;;;;5118163;27;20474;-87
2023/09/26 12:04:35;;;;;;;5.77;2.37;;;28.80;99.90;;;;;;5117496;28;20413;-85
2023/09/26 12:07:01;;;;;;;5.73;1.70;;;29.10;99.90;;;;;;5115500;28;20252;-90
2023/09/26 12:09:28;;;;;;;2.27;2.07;;;28.80;99.90;;;;;;5100159;28;20422;-90
2023/09/26 12:11:54;;;;;;;4.13;2.13;;;29.00;99.90;;;;;;5117112;28;20199;-90
2023/09/26 12:14:20;;;;;;;5.10;2.10;;;29.00;99.90;;;;;;5116664;28;20436;-91
2023/09/26 12:16:50;;;;;;;3.37;2.30;;;29.10;99.90;;;;;;5118098;28;20401;-88
2023/09/26 12:19:20;;;;;;;2.47;2.00;;;29.10;99.90;;;;;;5094676;28;20184;-90
2023/09/26 12:21:47;;;;;;;4.07;2.00;;;29.20;99.90;;;;;;5097453;28;20406;-90
2023/09/26 12:24:14;;;;;;;5.20;2.40;;;29.40;99.90;;;;;;5116070;28;20779;-90
2023/09/26 12:26:45;;;;;;;4.03;2.00;;;29.90;99.90;;;;;;5118377;28;20754;-90
2023/09/26 12:29:11;;;;;;;2.20;2.00;;;30.00;99.90;;;;;;5116961;28;20790;-90
2023/09/26 12:31:37;;;;;;;2.43;2.03;;;29.80;99.90;;;;;;5115394;28;20515;-91
2023/09/26 12:34:03;;;;;;;2.23;1.80;;;30.40;99.90;;;;;;5116929;28;20175;-87
2023/09/26 12:36:29;;;;;;;2.07;1.67;;;30.50;99.60;;;;;;5115449;28;20619;-87
2023/09/26 12:38:59;;;;;;;2.63;2.10;;;30.50;99.90;;;;;;5115403;28;20208;-87
2023/09/26 12:41:25;;;;;;;2.30;1.97;;;30.60;99.00;;;;;;5114445;28;20425;-87
2023/09/26 12:43:51;;;;;;;4.77;2.10;;;30.60;99.00;;;;;;5098548;28;20422;-87
2023/09/26 12:46:17;;;;;;;6.20;2.17;;;30.80;99.90;;;;;;5097453;28;20917;-86
2023/09/26 12:48:43;;;;;;;3.93;2.10;;;30.80;99.80;;;;;;5115557;28;20229;-86
2023/09/26 12:51:09;;;;;;;3.43;2.20;;;31.20;98.10;;;;;;5115020;28;20175;-89
2023/09/26 12:53:34;;;;;;;2.80;1.60;;;30.80;99.40;;;;;;5113763;28;20555;-88
2023/09/26 12:56:00;;;;;;;2.97;1.47;;;30.80;97.50;;;;;;5114186;28;20430;-90